Terminal Aerodrome Forecast
Issued by NWS

Home | Current Version | Previous Version | Text Only | Print | Product List | Glossary On
Versions: 1 2 3 4 5 6 7 8 9 10 11 12 13 14 15
235
FTUS46 KSEW 241720
TAFOLM
TAF
KOLM 241720Z 2418/2518 23005KT P6SM SCT015 BKN040
      TEMPO 2418/2419 BKN013 OVC020
     FM242100 27005KT P6SM SCT040
     FM251000 20006KT P6SM BKN020 OVC040=

USA.gov is the U.S. government's official web portal to all federal, state and local government web resources and services.